»·PEaware :: DCM424 KOXR-KOAK

DCM424 :: KOXR-KOAK

FLIGHT INFORMATION

Flight Status: Arrived
Operator: DotCom
More flights by this operator :: More flights under this callsign
Pilot: Ben H. (9170)
Aircraft: BEECH AIRCRAFT A90-E90 KING AIR
(BE9L)
More flights by this aircraft type
Origin: KOXR Oxnard
United States
Destination: KOAK Metro Oakland Intl
United States
More flights between these airports :: More routes between these airports
Route: +SKIFF7 KWANG RZS V25 PRB V113 PXN PXN5
File this flight plan on PilotEdge
Remarks:
Altitude:
(Current/Filed)
20,000ft
Speed:
(Current/Filed)
220kts
Departed: 27-Jan-19 08:43 PM
Arrived: 27-Jan-19 10:10 PM
Distance/Time
Traveled:
257nm/1:26
Distance/Time
To Go:
Arrived

Flight Plot

Page will automatically refresh every two minutes.

Flight plan parsing failed; only flown route is shown


Map Options




Map Legend


Flown Route
Filed Route
Departure Airport
Arrival Airport
Navaid (VOR, NDB)
Fix

Horizontal Profiles

Position Reports

Time Latitude Longitude Heading Altitude Ground
Speed
27-Jan-19 20:31 34.199064 -119.206692 63 38ft 0kts
27-Jan-19 20:32 34.199064 -119.206692 63 38ft 0kts
27-Jan-19 20:33 34.199064 -119.206692 63 38ft 0kts
27-Jan-19 20:34 34.199064 -119.206692 63 38ft 0kts
27-Jan-19 20:35 34.199064 -119.206692 63 38ft 0kts
27-Jan-19 20:36 34.199064 -119.206692 63 38ft 0kts
27-Jan-19 20:37 34.199064 -119.206692 63 38ft 0kts
27-Jan-19 20:38 34.199792 -119.204700 90 38ft 20kts
27-Jan-19 20:39 34.199871 -119.197569 16 38ft 6kts
27-Jan-19 20:40 34.199933 -119.197559 3 38ft 0kts
27-Jan-19 20:41 34.199933 -119.197559 3 38ft 0kts
27-Jan-19 20:42 34.200810 -119.208192 270 44ft 123kts
27-Jan-19 20:43 34.199393 -119.253173 285 1538ft 138kts
27-Jan-19 20:44 34.217714 -119.296999 300 2617ft 164kts
27-Jan-19 20:45 34.239018 -119.345602 297 3694ft 177kts
27-Jan-19 20:46 34.260444 -119.397017 297 4981ft 158kts
27-Jan-19 20:47 34.280429 -119.445144 297 6209ft 160kts
27-Jan-19 20:48 34.300597 -119.493684 298 7417ft 163kts
27-Jan-19 20:49 34.327254 -119.537652 314 8548ft 164kts
27-Jan-19 20:50 34.358940 -119.577799 315 9614ft 166kts
27-Jan-19 20:51 34.390961 -119.618701 315 10688ft 169kts
27-Jan-19 20:52 34.411772 -119.645313 314 11430ft 169kts
27-Jan-19 20:53 34.427260 -119.665166 314 11941ft 170kts
27-Jan-19 20:54 34.442833 -119.685144 314 12430ft 171kts
27-Jan-19 20:55 34.482633 -119.736152 314 13727ft 173kts
27-Jan-19 20:56 34.532859 -119.788141 329 15066ft 175kts
27-Jan-19 20:57 34.586764 -119.826756 329 16197ft 177kts
27-Jan-19 20:58 34.617971 -119.849349 329 16773ft 178kts
27-Jan-19 20:59 34.668125 -119.885792 329 17592ft 179kts
27-Jan-19 21:00 34.701444 -119.910039 328 18073ft 180kts
27-Jan-19 21:01 34.759115 -119.952048 328 18802ft 182kts
27-Jan-19 21:02 34.793192 -119.976910 328 19179ft 183kts
27-Jan-19 21:03 34.811706 -119.990427 328 19368ft 183kts
27-Jan-19 21:04 34.833222 -120.006143 328 19577ft 183kts
27-Jan-19 21:05 34.891692 -120.048780 328 20087ft 184kts
27-Jan-19 21:06 34.958746 -120.097795 328 20123ft 198kts
27-Jan-19 21:07 35.009643 -120.135079 328 20120ft 199kts
27-Jan-19 21:08 35.073395 -120.181918 328 20117ft 198kts
27-Jan-19 21:09 35.120901 -120.216907 328 20120ft 198kts
27-Jan-19 21:10 35.167953 -120.251650 328 20119ft 198kts
27-Jan-19 21:11 35.215422 -120.286692 328 20117ft 199kts
27-Jan-19 21:12 35.262288 -120.321333 328 20114ft 199kts
27-Jan-19 21:13 35.297449 -120.347355 328 20111ft 199kts
27-Jan-19 21:14 35.355676 -120.390508 328 20109ft 199kts
27-Jan-19 21:15 35.402981 -120.425622 328 20112ft 198kts
27-Jan-19 21:16 35.450257 -120.460765 328 20118ft 198kts
27-Jan-19 21:17 35.497403 -120.495861 328 20123ft 198kts
27-Jan-19 21:18 35.544439 -120.530924 328 20126ft 198kts
27-Jan-19 21:19 35.591501 -120.566056 328 20125ft 198kts
27-Jan-19 21:20 35.638705 -120.601341 328 20125ft 198kts
27-Jan-19 21:21 35.688043 -120.628295 350 20127ft 201kts
27-Jan-19 21:22 35.744261 -120.632793 353 20124ft 202kts
27-Jan-19 21:23 35.800074 -120.636887 353 20124ft 202kts
27-Jan-19 21:24 35.855669 -120.641332 353 20124ft 202kts
27-Jan-19 21:25 35.911613 -120.645849 353 20123ft 202kts
27-Jan-19 21:26 35.966870 -120.650318 352 20124ft 202kts
27-Jan-19 21:27 36.022881 -120.654847 352 20145ft 202kts
27-Jan-19 21:28 36.079084 -120.659397 352 20144ft 202kts
27-Jan-19 21:29 36.129047 -120.663450 352 20149ft 203kts
27-Jan-19 21:30 36.184650 -120.673101 347 20149ft 202kts
27-Jan-19 21:31 36.240408 -120.684045 347 20150ft 203kts
27-Jan-19 21:32 36.296152 -120.695024 347 20150ft 203kts
27-Jan-19 21:33 36.351749 -120.705991 347 20153ft 203kts
27-Jan-19 21:34 36.407384 -120.716981 347 20161ft 202kts
27-Jan-19 21:35 36.462944 -120.727972 347 20170ft 202kts
27-Jan-19 21:36 36.518806 -120.739038 347 20170ft 203kts
27-Jan-19 21:37 36.574318 -120.750050 347 20163ft 203kts
27-Jan-19 21:38 36.629099 -120.760933 347 20157ft 203kts
27-Jan-19 21:39 36.684942 -120.772045 347 20155ft 203kts
27-Jan-19 21:40 36.734012 -120.799952 318 19639ft 200kts
27-Jan-19 21:41 36.775768 -120.847094 318 18640ft 205kts
27-Jan-19 21:42 36.818256 -120.895548 318 17632ft 207kts
27-Jan-19 21:43 36.860858 -120.944284 318 16629ft 209kts
27-Jan-19 21:44 36.904067 -120.993786 318 15615ft 210kts
27-Jan-19 21:45 36.946564 -121.042580 318 14604ft 208kts
27-Jan-19 21:46 36.989093 -121.091494 318 13599ft 209kts
27-Jan-19 21:47 37.031962 -121.140848 318 12593ft 211kts
27-Jan-19 21:48 37.074880 -121.190286 318 11582ft 209kts
27-Jan-19 21:49 37.114591 -121.236153 319 10647ft 209kts
27-Jan-19 21:50 37.153907 -121.281668 319 9994ft 207kts
27-Jan-19 21:51 37.196393 -121.330846 319 9987ft 209kts
27-Jan-19 21:52 37.238398 -121.379944 318 9984ft 210kts
27-Jan-19 21:53 37.281377 -121.430001 318 9982ft 210kts
27-Jan-19 21:54 37.324442 -121.480171 318 9856ft 215kts
27-Jan-19 21:55 37.368506 -121.531609 318 9058ft 214kts
27-Jan-19 21:56 37.411616 -121.582090 318 8250ft 208kts
27-Jan-19 21:57 37.453704 -121.631313 318 7443ft 206kts
27-Jan-19 21:58 37.493244 -121.681874 303 6649ft 207kts
27-Jan-19 21:59 37.524088 -121.743409 303 5853ft 209kts
27-Jan-19 22:00 37.555214 -121.805240 303 5058ft 210kts
27-Jan-19 22:01 37.586689 -121.860112 308 4985ft 179kts
27-Jan-19 22:02 37.614812 -121.906913 305 4917ft 162kts
27-Jan-19 22:03 37.636259 -121.948986 302 4666ft 164kts
27-Jan-19 22:04 37.657453 -122.000789 295 4199ft 168kts
27-Jan-19 22:05 37.675312 -122.048382 291 3666ft 169kts
27-Jan-19 22:06 37.693198 -122.107099 292 2849ft 166kts
27-Jan-19 22:07 37.708998 -122.155999 294 1587ft 140kts
27-Jan-19 22:08 37.719440 -122.187948 293 342ft 76kts
27-Jan-19 22:09 37.727195 -122.212313 303 7ft 23kts
27-Jan-19 22:11 37.728299 -122.212872 353 10ft 4kts
27-Jan-19 22:12 37.729374 -122.212556 300 7ft 0kts

Navigation Log

Ident Type
Flight plan parsing failed, navigation log unavailable